Martins Ferry, OH (43935)

9:44 AM EDT on August 31, 2015 (GMT -0400)
Crawford Heights | | Change Station
CLOSE
Current Station
Personal Weather Station
Location: Martins Ferry, OH
Elevation: 1109 ft
Nearby Weather Stations

Elev 1109 ft 40.09 °N, 80.75 °W | Updated 13 minutes ago

Partly Cloudy
Partly Cloudy
78.1 °F
Feels Like 80 °F
N
1.1
Wind Variable Wind from ESE

Today
High -- | Low -- °F
--% Chance of Precip.
Yesterday
High -- | Low -- °F
Precip. -- in
6:49 AM 7:56 PM
Waning Gibbous, 95% visible
Pressure 30.12 in
Visibility 6.0 miles
Clouds Clear
Heat Index 80 °F
Dew Point 71 °F
Humidity 80%
Rainfall 0.00 in
Snow Depth Not available.
UV 2 out of 12
Pollen 10.50 out of 12
Air Quality Not available.
Flu Activity Not available.
METAR KHLG 311253Z 20003KT 6SM BR CLR 21/19 A3013 RMK AO2 SLP198 T02060189
Pressure 30.12 in
Visibility 6.0 miles
Clouds Clear
Heat Index 80 °F
Dew Point 71 °F
Humidity 80%
Rainfall 0.00 in
Snow Depth Not available.
UV 2 out of 12
Pollen 10.50 out of 12
Air Quality Not available.
Flu Activity Not available.
METAR KHLG 311253Z 20003KT 6SM BR CLR 21/19 A3013 RMK AO2 SLP198 T02060189

10-Day Weather Forecast

×

Almanac

Astronomy

Aug. 31, 2015 Rise Set
Actual Time
Civil Twilight
Nautical Twilight
Astronomical Twilight
Moon
Length of Visible Light
Length of Day
Tomorrow will be .
, % of the Moon is Illuminated

Today's Extremes

State Highs State Lows

Community

WunderPhotos

Upload Photos

1,851,240 photos uploaded!

WunderBlogs® & News

Nearby

Air Quality

  Air Quality AQ Index Pollutant
Not available.

Snow Depth

Station Depth Elevation

Earthquake Activity

City Distance Mag. Time & Date
Minimum magnitude displayed is 2.5.

Coastal Water Temperatures

Place Temperature

Stations

Nearby Weather Stations

Station Location Temp. Windchill Dew Point Humidity Wind Precip. Elev Updated Type